Time;durP1;ratioP1;P1;durP2;ratioP2;P2;SDS_P1;SDS_P2;PMS_P1;PMS_P2;Temp;Humidity;BMP_temperature;BMP_pressure;BME280_temperature;BME280_humidity;BME280_pressure;Samples;Min_cycle;Max_cycle;Signal;HPM_P1;HPM_P2
2022/05/16 00:02:13;;;;;;;1.57;1.47;;;26.50;55.90;;;;;;5054631;28;20441;-82
2022/05/16 00:04:42;;;;;;;1.50;1.40;;;26.50;56.00;;;;;;5054779;28;20453;-82
2022/05/16 00:07:10;;;;;;;2.50;1.30;;;26.50;55.90;;;;;;5054152;28;20448;-82
2022/05/16 00:09:37;;;;;;;1.30;1.20;;;26.50;56.00;;;;;;5036609;28;20494;-83
2022/05/16 00:12:05;;;;;;;1.40;1.30;;;26.50;56.00;;;;;;5054362;28;20434;-82
2022/05/16 00:14:32;;;;;;;1.40;1.30;;;26.50;56.00;;;;;;5054540;28;20449;-92
2022/05/16 00:17:00;;;;;;;1.47;1.37;;;26.50;55.90;;;;;;5054293;28;20462;-82
2022/05/16 00:19:27;;;;;;;2.03;1.77;;;26.50;55.90;;;;;;5054380;28;20464;-82
2022/05/16 00:21:54;;;;;;;1.30;1.20;;;26.50;55.90;;;;;;5054185;28;20442;-90
2022/05/16 00:24:26;;;;;;;1.70;1.60;;;26.50;55.90;;;;;;5054258;28;20438;-82
2022/05/16 00:26:53;;;;;;;1.70;1.20;;;26.50;55.90;;;;;;5054309;28;20458;-82
2022/05/16 00:29:20;;;;;;;1.50;1.40;;;26.50;56.00;;;;;;5053977;28;20481;-87
2022/05/16 00:31:46;;;;;;;1.40;1.30;;;26.60;56.00;;;;;;5054170;28;20437;-84
2022/05/16 00:34:15;;;;;;;1.70;1.60;;;26.50;55.90;;;;;;5056738;28;20481;-82
2022/05/16 00:36:47;;;;;;;1.47;1.13;;;26.50;55.90;;;;;;5074029;28;20459;-82
2022/05/16 00:39:14;;;;;;;1.20;1.10;;;26.50;55.90;;;;;;5074075;28;20852;-92
2022/05/16 00:41:41;;;;;;;1.30;1.20;;;26.50;56.00;;;;;;5073837;28;20818;-82
2022/05/16 00:44:08;;;;;;;2.03;1.47;;;26.50;56.50;;;;;;5074061;28;20464;-91
2022/05/16 00:46:35;;;;;;;1.27;1.17;;;26.50;55.90;;;;;;5073846;28;20453;-86
2022/05/16 00:49:08;;;;;;;1.87;1.20;;;26.50;55.90;;;;;;5073721;28;20491;-83
2022/05/16 00:51:42;;;;;;;1.23;1.13;;;26.50;55.90;;;;;;5074105;28;20436;-83
2022/05/16 00:54:13;;;;;;;1.93;1.57;;;26.50;55.90;;;;;;5073872;28;20451;-82
2022/05/16 00:56:40;;;;;;;1.63;1.30;;;26.50;56.00;;;;;;5073901;28;20441;-82
2022/05/16 00:59:08;;;;;;;1.93;1.47;;;26.50;56.00;;;;;;5073814;28;20432;-83
2022/05/16 01:07:05;;;;;;;1.30;1.20;;;26.40;56.00;;;;;;5073945;28;20420;-82
2022/05/16 01:09:33;;;;;;;1.50;1.40;;;26.40;56.00;;;;;;5073764;28;20488;-92
2022/05/16 01:12:00;;;;;;;1.50;1.40;;;26.40;56.00;;;;;;5073803;28;20439;-82
2022/05/16 01:14:46;;;;;;;1.20;1.03;;;26.40;56.00;;;;;;5073682;28;20467;-87
2022/05/16 01:17:14;;;;;;;1.40;1.30;;;26.50;56.10;;;;;;5073473;28;20463;-82
2022/05/16 01:19:41;;;;;;;1.33;1.23;;;26.40;56.10;;;;;;5073380;28;20441;-82
2022/05/16 01:22:21;;;;;;;1.30;1.10;;;26.40;56.10;;;;;;5073391;28;20435;-90
2022/05/16 01:24:47;;;;;;;2.00;1.37;;;26.40;56.10;;;;;;5073391;28;20445;-92
2022/05/16 01:27:14;;;;;;;1.43;1.30;;;26.40;56.10;;;;;;5073220;28;20441;-82
2022/05/16 01:29:42;;;;;;;1.67;1.37;;;26.40;56.10;;;;;;5073278;28;20480;-82
2022/05/16 01:32:10;;;;;;;1.60;1.27;;;26.40;56.10;;;;;;5073147;28;20955;-82
2022/05/16 01:34:37;;;;;;;1.50;1.40;;;26.40;56.10;;;;;;5073158;28;20476;-82
2022/05/16 01:37:04;;;;;;;1.23;1.07;;;26.40;56.10;;;;;;5073285;28;20436;-82
2022/05/16 01:39:32;;;;;;;1.30;1.20;;;26.40;56.10;;;;;;5073214;28;20446;-91
2022/05/16 01:41:59;;;;;;;1.50;1.40;;;26.40;56.10;;;;;;5073236;28;20774;-82
2022/05/16 01:44:26;;;;;;;1.33;1.10;;;26.40;56.10;;;;;;5073223;28;20479;-82
2022/05/16 01:46:52;;;;;;;1.20;1.10;;;26.40;56.10;;;;;;5073021;28;20809;-82
2022/05/16 01:49:19;;;;;;;1.53;1.43;;;26.40;56.10;;;;;;5072864;28;21020;-82
2022/05/16 01:51:46;;;;;;;1.80;1.70;;;26.40;56.10;;;;;;5073196;28;20443;-82
2022/05/16 01:54:13;;;;;;;1.33;1.23;;;26.40;56.10;;;;;;5073263;28;20445;-82
2022/05/16 01:56:41;;;;;;;1.90;1.30;;;26.40;56.10;;;;;;5073186;28;20440;-82
2022/05/16 01:59:08;;;;;;;1.40;1.30;;;26.40;56.10;;;;;;5072940;28;20495;-82
2022/05/16 02:01:35;;;;;;;1.30;1.20;;;26.40;56.10;;;;;;5073028;28;20444;-92
2022/05/16 02:04:02;;;;;;;1.20;1.10;;;26.40;56.10;;;;;;5073139;28;20437;-92
2022/05/16 02:06:29;;;;;;;2.50;1.40;;;26.40;56.10;;;;;;5073134;28;20437;-82
2022/05/16 02:08:56;;;;;;;1.83;1.10;;;26.40;56.10;;;;;;5072649;28;20860;-82
2022/05/16 02:11:23;;;;;;;1.40;1.20;;;26.40;56.10;;;;;;5073048;28;20441;-93
2022/05/16 02:13:51;;;;;;;1.30;1.20;;;26.40;56.10;;;;;;5072970;28;20443;-90
2022/05/16 02:16:19;;;;;;;1.30;1.10;;;26.40;56.20;;;;;;5073878;28;20460;-82
2022/05/16 02:18:46;;;;;;;1.10;1.00;;;26.30;56.10;;;;;;5076569;28;20452;-92
2022/05/16 02:26:46;;;;;;;1.37;1.00;;;26.30;56.10;;;;;;5076656;28;20537;-82
2022/05/16 02:29:15;;;;;;;1.27;1.17;;;26.30;56.10;;;;;;5076448;28;20810;-83
2022/05/16 02:31:42;;;;;;;1.80;1.70;;;26.30;56.10;;;;;;5058380;28;20982;-82
2022/05/16 02:34:09;;;;;;;1.87;1.10;;;26.30;56.10;;;;;;5076364;28;20927;-92
2022/05/16 02:36:36;;;;;;;1.20;1.10;;;26.30;56.10;;;;;;5058695;28;20441;-82
2022/05/16 02:39:03;;;;;;;1.53;1.37;;;26.30;56.10;;;;;;5076324;28;20448;-82
2022/05/16 02:41:29;;;;;;;1.30;1.20;;;26.30;56.10;;;;;;5076088;28;20445;-91
2022/05/16 02:43:56;;;;;;;1.40;1.17;;;26.30;56.10;;;;;;5076258;28;20813;-92
2022/05/16 02:46:24;;;;;;;1.67;1.57;;;26.30;56.10;;;;;;5058599;28;20449;-82
2022/05/16 02:48:51;;;;;;;1.30;1.13;;;26.30;56.10;;;;;;5076062;28;20480;-83
2022/05/16 02:51:18;;;;;;;1.30;1.20;;;26.30;56.10;;;;;;5076023;28;20433;-82
2022/05/16 02:53:45;;;;;;;1.50;1.40;;;26.30;56.10;;;;;;5076095;28;20441;-82
2022/05/16 02:56:11;;;;;;;1.60;1.20;;;26.30;56.10;;;;;;5076030;28;20441;-82
2022/05/16 02:58:38;;;;;;;1.40;1.30;;;26.30;56.10;;;;;;5075997;28;20452;-91
2022/05/16 03:01:05;;;;;;;2.00;1.40;;;26.30;56.10;;;;;;5075947;28;20445;-83
2022/05/16 03:03:33;;;;;;;1.30;1.20;;;26.30;56.10;;;;;;5075750;28;20455;-82
2022/05/16 03:06:00;;;;;;;1.23;1.10;;;26.30;56.10;;;;;;5075196;28;20445;-82
2022/05/16 03:08:27;;;;;;;1.47;1.33;;;26.30;56.10;;;;;;5075915;28;20437;-86
2022/05/16 03:10:53;;;;;;;1.43;1.17;;;26.30;56.10;;;;;;5075568;28;20449;-82
2022/05/16 03:13:20;;;;;;;1.40;1.10;;;26.30;56.10;;;;;;5075629;28;20437;-83
2022/05/16 03:15:47;;;;;;;1.30;1.20;;;26.30;56.10;;;;;;5075494;28;20457;-91
2022/05/16 03:18:14;;;;;;;1.30;1.13;;;26.30;56.10;;;;;;5075658;28;20858;-82
2022/05/16 03:20:42;;;;;;;1.40;1.17;;;26.30;56.10;;;;;;5075506;28;20886;-91
2022/05/16 03:23:09;;;;;;;1.47;1.37;;;26.30;56.10;;;;;;5075530;28;20433;-82
2022/05/16 03:25:36;;;;;;;1.20;1.10;;;26.30;56.10;;;;;;5075665;28;20444;-92
2022/05/16 03:28:03;;;;;;;2.17;1.60;;;26.30;56.10;;;;;;5075169;28;20531;-82
2022/05/16 03:30:30;;;;;;;1.40;1.30;;;26.30;56.10;;;;;;5075164;28;20563;-82
2022/05/16 03:32:56;;;;;;;1.40;1.27;;;26.30;56.10;;;;;;5075246;28;20447;-82
2022/05/16 03:35:25;;;;;;;1.50;1.40;;;26.30;56.10;;;;;;5075497;28;20480;-88
2022/05/16 03:37:53;;;;;;;1.20;1.10;;;26.30;56.10;;;;;;5075250;28;20441;-82
2022/05/16 03:43:04;;;;;;;1.27;1.13;;;26.30;56.10;;;;;;5075131;28;20428;-86
2022/05/16 03:45:31;;;;;;;1.30;1.20;;;26.30;56.10;;;;;;5074969;28;20526;-89
2022/05/16 03:47:58;;;;;;;1.10;1.00;;;26.30;56.10;;;;;;5074811;28;20433;-82
2022/05/16 03:50:26;;;;;;;1.30;1.20;;;26.30;56.10;;;;;;5075140;28;20488;-83
2022/05/16 03:52:54;;;;;;;1.40;1.30;;;26.30;56.10;;;;;;5074997;28;20456;-92
2022/05/16 03:55:21;;;;;;;1.70;1.20;;;26.30;56.10;;;;;;5074861;28;20448;-92
2022/05/16 03:57:48;;;;;;;1.30;1.20;;;26.20;56.00;;;;;;5074831;28;20955;-82
2022/05/16 04:00:17;;;;;;;1.30;1.20;;;26.30;56.10;;;;;;5074767;28;20445;-82
2022/05/16 04:02:44;;;;;;;1.30;1.20;;;26.20;56.00;;;;;;5074874;28;20443;-89
2022/05/16 04:05:15;;;;;;;1.43;1.20;;;26.30;56.10;;;;;;5074578;28;20433;-83
2022/05/16 04:07:42;;;;;;;1.57;1.27;;;26.30;56.10;;;;;;5074785;28;20453;-91
2022/05/16 04:10:10;;;;;;;1.70;1.20;;;26.20;56.10;;;;;;5074433;28;20557;-82
2022/05/16 04:12:37;;;;;;;1.43;1.27;;;26.30;56.10;;;;;;5074610;28;20958;-82
2022/05/16 04:15:06;;;;;;;1.30;1.10;;;26.30;56.10;;;;;;5074416;28;20526;-82
2022/05/16 04:17:33;;;;;;;1.20;1.10;;;26.30;56.10;;;;;;5074342;28;20445;-81
2022/05/16 04:20:00;;;;;;;1.60;1.13;;;26.20;56.00;;;;;;5074482;28;20448;-82
2022/05/16 04:22:27;;;;;;;1.57;1.43;;;26.20;56.00;;;;;;5074433;28;20433;-82
2022/05/16 04:24:54;;;;;;;1.40;1.07;;;26.20;56.00;;;;;;5074357;28;20436;-82
2022/05/16 04:27:22;;;;;;;1.30;1.13;;;26.30;56.10;;;;;;5074126;28;20440;-84
2022/05/16 04:29:49;;;;;;;1.47;1.37;;;26.30;56.10;;;;;;5074038;28;21016;-82
2022/05/16 04:32:16;;;;;;;1.37;1.23;;;26.20;56.10;;;;;;5074249;28;20449;-83
2022/05/16 04:34:43;;;;;;;2.30;1.27;;;26.20;56.00;;;;;;5074174;28;20509;-82
2022/05/16 04:37:09;;;;;;;1.20;1.10;;;26.10;56.00;;;;;;5074400;28;20458;-89
2022/05/16 04:39:36;;;;;;;1.30;1.20;;;26.10;56.00;;;;;;5073230;28;20455;-82
2022/05/16 04:44:49;;;;;;;1.30;1.10;;;26.20;56.10;;;;;;5073967;28;20447;-82
2022/05/16 04:47:16;;;;;;;2.43;1.70;;;26.20;56.10;;;;;;5073484;28;20457;-86
2022/05/16 04:49:43;;;;;;;1.53;1.43;;;26.20;56.20;;;;;;5073580;28;20480;-82
2022/05/16 04:52:11;;;;;;;2.37;1.50;;;26.20;56.10;;;;;;5073561;28;20443;-82
2022/05/16 04:54:38;;;;;;;1.50;1.27;;;26.20;56.10;;;;;;5073623;28;20942;-82
2022/05/16 04:57:05;;;;;;;2.23;1.70;;;26.20;56.10;;;;;;5073603;28;20858;-82
2022/05/16 04:59:32;;;;;;;2.10;1.60;;;26.20;56.20;;;;;;5073516;28;20447;-82
2022/05/16 05:02:00;;;;;;;1.30;1.20;;;26.10;56.10;;;;;;5073434;28;20444;-85
2022/05/16 05:04:27;;;;;;;1.70;1.60;;;26.10;56.20;;;;;;5073481;28;20448;-82
2022/05/16 05:06:54;;;;;;;1.93;1.47;;;26.20;56.20;;;;;;5073250;28;20441;-82
2022/05/16 05:09:20;;;;;;;1.73;1.50;;;26.10;56.20;;;;;;5073322;28;20436;-82
2022/05/16 05:14:34;;;;;;;2.73;1.30;;;26.10;56.20;;;;;;5073019;28;20791;-81
2022/05/16 05:17:05;;;;;;;1.60;1.50;;;26.10;56.30;;;;;;5072263;28;20816;-82
2022/05/16 05:19:32;;;;;;;1.60;1.47;;;26.10;56.30;;;;;;5071517;28;20445;-82
2022/05/16 05:21:59;;;;;;;2.80;1.50;;;26.10;56.30;;;;;;5072449;28;20452;-81
2022/05/16 05:24:26;;;;;;;1.67;1.43;;;26.10;56.30;;;;;;5072280;28;20445;-81
2022/05/16 05:26:54;;;;;;;1.40;1.30;;;26.10;56.30;;;;;;5072159;28;20765;-83
2022/05/16 05:29:22;;;;;;;1.20;1.10;;;26.10;56.30;;;;;;5072039;28;20441;-88
2022/05/16 05:31:50;;;;;;;1.77;1.60;;;26.10;56.30;;;;;;5072534;28;20440;-81
2022/05/16 05:34:19;;;;;;;2.00;1.80;;;26.00;56.20;;;;;;5072672;28;20962;-81
2022/05/16 05:36:45;;;;;;;1.57;1.47;;;26.10;56.30;;;;;;5073169;28;20440;-81
2022/05/16 05:39:16;;;;;;;1.67;1.57;;;26.10;56.30;;;;;;5072949;28;20931;-82
2022/05/16 05:41:43;;;;;;;1.80;1.53;;;26.10;56.30;;;;;;5073181;28;20432;-81
2022/05/16 05:44:09;;;;;;;1.67;1.33;;;26.10;56.30;;;;;;5073161;28;20797;-87
2022/05/16 05:46:37;;;;;;;1.30;1.20;;;26.10;56.30;;;;;;5072397;28;20487;-82
2022/05/16 05:49:04;;;;;;;1.40;1.30;;;26.10;56.30;;;;;;5072958;28;20942;-81
2022/05/16 05:51:32;;;;;;;1.50;1.40;;;26.10;56.30;;;;;;5075863;28;20488;-82
2022/05/16 05:53:59;;;;;;;1.27;1.17;;;26.10;56.40;;;;;;5077119;28;20964;-81
2022/05/16 05:56:27;;;;;;;1.30;1.20;;;26.10;56.40;;;;;;5076659;28;20436;-82
2022/05/16 05:58:54;;;;;;;2.03;1.57;;;26.10;56.40;;;;;;5076760;28;20468;-82
2022/05/16 06:01:21;;;;;;;1.43;1.30;;;26.10;56.40;;;;;;5076658;28;20440;-81
2022/05/16 06:03:48;;;;;;;2.17;1.20;;;26.10;56.40;;;;;;5076903;28;20448;-82
2022/05/16 06:06:15;;;;;;;1.20;1.10;;;26.10;56.40;;;;;;5076717;28;20441;-88
2022/05/16 06:08:43;;;;;;;1.37;1.23;;;26.10;56.40;;;;;;5076886;28;20441;-87
2022/05/16 06:11:10;;;;;;;1.53;1.43;;;26.20;56.40;;;;;;5076594;28;20484;-88
2022/05/16 06:13:38;;;;;;;1.40;1.30;;;26.10;56.50;;;;;;5076622;28;20936;-88
2022/05/16 06:16:05;;;;;;;1.40;1.30;;;26.10;56.50;;;;;;5076464;28;20471;-86
2022/05/16 06:18:32;;;;;;;1.50;1.40;;;26.10;56.50;;;;;;5076847;28;20436;-88
2022/05/16 06:20:59;;;;;;;1.57;1.47;;;26.20;56.60;;;;;;5076576;28;20794;-86
2022/05/16 06:23:26;;;;;;;1.80;1.30;;;26.10;56.50;;;;;;5076421;28;20448;-87
2022/05/16 06:25:54;;;;;;;3.30;1.40;;;26.10;56.50;;;;;;5076389;28;20468;-88
2022/05/16 06:28:24;;;;;;;1.33;1.23;;;26.10;56.50;;;;;;5076284;28;20440;-81
2022/05/16 06:30:52;;;;;;;1.67;1.50;;;26.20;56.60;;;;;;5076397;28;20477;-87
2022/05/16 06:33:21;;;;;;;1.40;1.20;;;26.10;56.60;;;;;;5076101;28;20447;-84
2022/05/16 06:35:49;;;;;;;1.60;1.50;;;26.10;56.60;;;;;;5075956;28;21013;-87
2022/05/16 06:38:18;;;;;;;1.67;1.57;;;26.10;56.60;;;;;;5058324;28;20442;-87
2022/05/16 06:40:47;;;;;;;1.40;1.27;;;26.20;56.60;;;;;;5076155;28;20448;-88
2022/05/16 06:43:17;;;;;;;1.50;1.40;;;26.10;56.60;;;;;;5076190;28;20448;-88
2022/05/16 06:45:44;;;;;;;1.57;1.40;;;26.10;56.60;;;;;;5075770;28;20456;-88
2022/05/16 06:48:11;;;;;;;1.53;1.40;;;26.10;56.80;;;;;;5075934;28;20436;-87
2022/05/16 06:50:39;;;;;;;1.63;1.53;;;26.10;56.70;;;;;;5075722;28;21010;-82
2022/05/16 06:53:06;;;;;;;1.30;1.07;;;26.10;56.80;;;;;;5075849;28;20437;-85
2022/05/16 06:55:33;;;;;;;1.40;1.27;;;26.10;56.70;;;;;;5076018;28;20433;-88
2022/05/16 06:58:00;;;;;;;1.40;1.30;;;26.10;56.80;;;;;;5076111;28;20433;-87
2022/05/16 07:00:29;;;;;;;1.40;1.30;;;26.10;56.80;;;;;;5075768;28;20454;-88
2022/05/16 07:02:56;;;;;;;1.53;1.43;;;26.10;56.80;;;;;;5075253;28;20441;-88
2022/05/16 07:05:23;;;;;;;1.40;1.30;;;26.10;56.80;;;;;;5075778;28;20441;-88
2022/05/16 07:07:51;;;;;;;1.47;1.30;;;26.10;56.90;;;;;;5075651;28;20436;-87
2022/05/16 07:10:18;;;;;;;1.33;1.23;;;26.10;56.90;;;;;;5075540;28;20485;-87
2022/05/16 07:12:45;;;;;;;1.67;1.57;;;26.10;56.90;;;;;;5075464;28;20447;-87
2022/05/16 07:15:13;;;;;;;1.60;1.43;;;26.20;57.00;;;;;;5075132;28;20848;-87
2022/05/16 07:17:43;;;;;;;1.60;1.50;;;26.20;57.10;;;;;;5075529;28;20472;-84
2022/05/16 07:20:11;;;;;;;1.30;1.20;;;26.10;57.00;;;;;;5075383;28;20448;-88
2022/05/16 07:22:41;;;;;;;1.50;1.20;;;26.10;57.00;;;;;;5075512;28;20932;-87
2022/05/16 07:25:09;;;;;;;1.40;1.30;;;26.20;57.00;;;;;;5075552;28;20441;-87
2022/05/16 07:30:22;;;;;;;1.57;1.47;;;26.10;57.10;;;;;;5075279;28;20522;-82
2022/05/16 07:32:51;;;;;;;2.40;1.60;;;26.10;57.10;;;;;;5075392;28;20468;-87
2022/05/16 07:35:22;;;;;;;1.50;1.40;;;26.20;57.20;;;;;;5075091;28;20500;-86
2022/05/16 07:37:48;;;;;;;1.40;1.30;;;26.10;57.20;;;;;;5075263;28;20437;-88
2022/05/16 07:40:16;;;;;;;1.80;1.50;;;26.10;57.20;;;;;;5075180;28;20931;-88
2022/05/16 07:42:43;;;;;;;1.50;1.40;;;26.20;57.30;;;;;;5074991;28;20429;-87
2022/05/16 07:45:11;;;;;;;1.60;1.50;;;26.20;57.30;;;;;;5074980;28;20449;-88
2022/05/16 07:47:37;;;;;;;2.47;1.50;;;26.20;57.30;;;;;;5074508;28;20452;-87
2022/05/16 07:50:09;;;;;;;1.90;1.57;;;26.10;57.40;;;;;;5074941;28;20437;-88
2022/05/16 07:52:37;;;;;;;1.50;1.40;;;26.20;57.50;;;;;;5075046;28;20444;-88
2022/05/16 07:55:05;;;;;;;1.37;1.13;;;26.20;57.50;;;;;;5074714;28;20443;-86
2022/05/16 07:57:31;;;;;;;2.53;1.60;;;26.20;57.50;;;;;;5074860;28;20441;-85
2022/05/16 07:59:58;;;;;;;1.30;1.20;;;26.20;57.60;;;;;;5074498;28;20444;-86
2022/05/16 08:02:25;;;;;;;2.07;1.57;;;26.10;57.50;;;;;;5074589;28;20447;-87
2022/05/16 08:04:52;;;;;;;1.70;1.60;;;26.20;57.60;;;;;;5074664;28;20445;-82
2022/05/16 08:07:20;;;;;;;1.30;1.20;;;26.20;57.60;;;;;;5074562;28;20436;-86
2022/05/16 08:12:33;;;;;;;1.50;1.40;;;26.20;57.80;;;;;;5074423;28;20454;-82
2022/05/16 08:15:01;;;;;;;1.40;1.20;;;26.10;57.70;;;;;;5073367;28;20443;-82
2022/05/16 08:17:28;;;;;;;1.63;1.40;;;26.10;57.70;;;;;;5074540;28;20994;-87
2022/05/16 08:19:56;;;;;;;1.63;1.53;;;26.20;57.90;;;;;;5074284;28;20468;-82
2022/05/16 08:22:30;;;;;;;1.60;1.33;;;26.10;57.90;;;;;;5074295;28;20443;-88
2022/05/16 08:24:57;;;;;;;1.50;1.30;;;26.10;57.90;;;;;;5074385;28;20460;-87
2022/05/16 08:27:24;;;;;;;1.67;1.47;;;26.10;58.00;;;;;;5073997;28;21012;-88
2022/05/16 08:29:51;;;;;;;2.13;1.50;;;26.10;58.00;;;;;;5074242;28;20444;-83
2022/05/16 08:32:20;;;;;;;1.73;1.63;;;26.10;58.00;;;;;;5073925;28;20491;-84
2022/05/16 08:34:47;;;;;;;1.50;1.40;;;26.10;58.00;;;;;;5073861;28;20483;-88
2022/05/16 08:40:03;;;;;;;1.40;1.30;;;26.10;58.10;;;;;;5074132;28;20953;-87
2022/05/16 08:42:43;;;;;;;1.87;1.77;;;26.10;58.20;;;;;;5073787;28;20476;-87
2022/05/16 08:45:17;;;;;;;1.63;1.53;;;26.20;58.30;;;;;;5073721;28;20757;-82
2022/05/16 08:47:52;;;;;;;1.30;1.20;;;26.20;58.30;;;;;;5073565;28;20946;-81
2022/05/16 08:50:23;;;;;;;1.30;1.20;;;26.20;58.20;;;;;;5073634;28;20455;-87
2022/05/16 08:52:55;;;;;;;1.40;1.30;;;26.20;58.30;;;;;;5073446;28;20443;-86
2022/05/16 08:55:30;;;;;;;1.50;1.40;;;26.30;58.40;;;;;;5073665;28;20445;-87
2022/05/16 08:58:00;;;;;;;1.67;1.30;;;26.20;58.40;;;;;;5073387;28;20451;-87
2022/05/16 09:00:33;;;;;;;1.40;1.30;;;26.20;58.30;;;;;;5073463;28;20436;-82
2022/05/16 09:03:03;;;;;;;1.33;1.23;;;26.20;58.30;;;;;;5073738;28;20452;-82
2022/05/16 09:05:36;;;;;;;1.43;1.33;;;26.20;58.30;;;;;;5073220;28;20956;-82
2022/05/16 09:08:07;;;;;;;1.33;1.23;;;26.20;58.30;;;;;;5073495;28;20441;-88
2022/05/16 09:10:59;;;;;;;1.30;1.17;;;26.20;58.30;;;;;;5073331;28;20452;-87
2022/05/16 09:13:38;;;;;;;1.30;1.20;;;26.20;58.30;;;;;;5073349;28;20447;-82
2022/05/16 09:16:12;;;;;;;1.57;1.37;;;26.20;58.40;;;;;;5073417;28;20475;-86
2022/05/16 09:18:44;;;;;;;1.97;1.37;;;26.20;58.30;;;;;;5073531;28;20451;-83
2022/05/16 09:21:14;;;;;;;1.50;1.40;;;26.20;58.40;;;;;;5073177;28;20452;-81
2022/05/16 09:23:49;;;;;;;1.67;1.57;;;26.20;58.40;;;;;;5073354;28;20778;-82
2022/05/16 09:26:26;;;;;;;1.43;1.33;;;26.20;58.40;;;;;;5072925;28;20444;-88
2022/05/16 09:28:59;;;;;;;1.50;1.40;;;26.20;58.30;;;;;;5073364;28;20440;-87
2022/05/16 09:31:30;;;;;;;1.43;1.30;;;26.10;58.40;;;;;;5073096;28;20962;-88
2022/05/16 09:33:59;;;;;;;1.80;1.53;;;26.20;58.40;;;;;;5073027;28;20445;-82
2022/05/16 09:36:32;;;;;;;1.37;1.27;;;26.10;58.30;;;;;;5073218;28;20441;-81
2022/05/16 09:38:58;;;;;;;1.87;1.27;;;26.20;58.50;;;;;;5073228;28;20966;-85
2022/05/16 09:41:40;;;;;;;1.43;1.33;;;26.30;58.60;;;;;;5072967;28;20451;-87
2022/05/16 09:44:12;;;;;;;1.33;1.10;;;26.20;58.60;;;;;;5073073;28;20944;-88
2022/05/16 09:46:41;;;;;;;1.33;1.23;;;26.10;58.50;;;;;;5072968;28;20471;-83
2022/05/16 09:49:12;;;;;;;1.40;1.30;;;26.10;58.50;;;;;;5073081;28;20444;-88
2022/05/16 09:51:48;;;;;;;1.50;1.40;;;26.20;58.70;;;;;;5072983;28;20920;-81
2022/05/16 09:54:23;;;;;;;1.30;1.20;;;26.20;58.70;;;;;;5073051;28;20923;-87
2022/05/16 09:57:12;;;;;;;1.30;1.20;;;26.10;58.70;;;;;;5072959;28;20444;-88
2022/05/16 09:59:43;;;;;;;1.57;1.47;;;26.20;58.70;;;;;;5073017;28;20499;-82
2022/05/16 10:02:26;;;;;;;1.63;1.53;;;26.20;58.80;;;;;;5072882;28;20449;-87
2022/05/16 10:04:56;;;;;;;1.50;1.40;;;26.20;58.70;;;;;;5072925;28;20856;-82
2022/05/16 10:07:28;;;;;;;1.57;1.47;;;26.10;58.80;;;;;;5072817;28;20815;-88
2022/05/16 10:09:56;;;;;;;1.50;1.30;;;26.20;58.80;;;;;;5072832;28;20947;-87
2022/05/16 10:12:27;;;;;;;1.40;1.20;;;26.10;58.90;;;;;;5072645;28;20839;-87
2022/05/16 10:14:54;;;;;;;1.43;1.33;;;26.20;58.90;;;;;;5072788;28;20436;-88
2022/05/16 10:17:28;;;;;;;1.20;1.10;;;26.20;58.90;;;;;;5072988;28;20440;-87
2022/05/16 10:20:00;;;;;;;1.53;1.43;;;26.30;59.00;;;;;;5072750;28;20494;-82
2022/05/16 10:22:28;;;;;;;1.33;1.20;;;26.20;59.10;;;;;;5072659;28;20440;-88
2022/05/16 10:24:57;;;;;;;2.13;1.40;;;26.30;59.20;;;;;;5072773;28;20440;-88
2022/05/16 10:27:29;;;;;;;1.40;1.30;;;26.20;59.10;;;;;;5072690;28;20445;-87
2022/05/16 10:30:00;;;;;;;1.40;1.30;;;26.30;59.20;;;;;;5072463;28;20468;-87
2022/05/16 10:35:23;;;;;;;1.50;1.33;;;26.40;59.10;;;;;;5072302;28;20511;-82
2022/05/16 10:37:53;;;;;;;1.70;1.60;;;26.30;59.20;;;;;;5074318;28;20433;-87
2022/05/16 10:40:29;;;;;;;1.53;1.43;;;26.30;59.30;;;;;;5075861;28;20788;-87
2022/05/16 10:43:11;;;;;;;1.20;1.10;;;26.40;59.20;;;;;;5059300;28;20445;-84
2022/05/16 10:45:43;;;;;;;1.60;1.50;;;26.40;59.10;;;;;;5075983;28;20461;-82
2022/05/16 10:48:17;;;;;;;1.20;1.10;;;26.40;59.30;;;;;;5076230;28;20444;-81
2022/05/16 10:50:47;;;;;;;1.47;1.37;;;26.40;59.20;;;;;;5076015;28;20467;-88
2022/05/16 10:53:21;;;;;;;1.77;1.07;;;26.40;59.30;;;;;;5075812;28;20484;-87
2022/05/16 10:55:55;;;;;;;1.20;1.10;;;26.40;59.20;;;;;;5076081;28;20946;-87
2022/05/16 10:58:35;;;;;;;1.90;1.50;;;26.40;59.10;;;;;;5076187;28;20946;-87
2022/05/16 11:01:09;;;;;;;1.70;1.20;;;26.40;59.30;;;;;;5075793;28;20463;-88
2022/05/16 11:04:00;;;;;;;1.20;1.10;;;26.40;59.40;;;;;;5075963;28;20511;-87
2022/05/16 11:06:45;;;;;;;1.37;1.27;;;26.50;59.50;;;;;;5076057;28;20448;-88
2022/05/16 11:09:19;;;;;;;1.20;1.10;;;26.40;59.30;;;;;;5075757;28;20440;-83
2022/05/16 11:12:00;;;;;;;1.97;1.13;;;26.40;59.40;;;;;;5075777;28;20671;-87
2022/05/16 11:14:36;;;;;;;1.77;1.10;;;26.50;59.50;;;;;;5075805;28;20479;-88
2022/05/16 11:17:11;;;;;;;2.03;1.27;;;26.40;59.40;;;;;;5075345;28;20456;-84
2022/05/16 11:19:49;;;;;;;1.40;1.30;;;26.40;59.40;;;;;;5075240;28;20444;-82
2022/05/16 11:22:20;;;;;;;1.30;1.20;;;26.40;59.40;;;;;;5075458;28;20440;-88
2022/05/16 11:24:59;;;;;;;1.43;1.33;;;26.40;59.50;;;;;;5075171;28;20433;-82
2022/05/16 11:27:33;;;;;;;1.20;1.10;;;26.50;59.60;;;;;;5075169;28;20428;-88
2022/05/16 11:30:08;;;;;;;1.70;1.60;;;26.40;59.50;;;;;;5075257;28;20467;-82
2022/05/16 11:32:47;;;;;;;1.40;1.30;;;26.40;59.50;;;;;;5075155;28;20487;-85
2022/05/16 11:35:23;;;;;;;1.40;1.30;;;26.40;59.40;;;;;;5075299;28;20476;-82
2022/05/16 11:38:09;;;;;;;1.80;1.17;;;26.40;59.50;;;;;;5075536;28;20443;-86
2022/05/16 11:40:40;;;;;;;1.40;1.30;;;26.50;59.50;;;;;;5075201;28;20451;-88
2022/05/16 11:43:18;;;;;;;1.30;1.20;;;26.40;59.60;;;;;;5075024;28;20464;-88
2022/05/16 11:46:13;;;;;;;1.37;1.10;;;26.40;59.50;;;;;;5074818;28;20471;-88
2022/05/16 11:48:56;;;;;;;1.50;1.40;;;26.50;59.60;;;;;;5074884;28;20539;-87
2022/05/16 11:51:44;;;;;;;1.20;1.10;;;26.50;59.80;;;;;;5074816;28;20445;-89
2022/05/16 11:54:13;;;;;;;1.30;1.20;;;26.50;59.80;;;;;;5074821;28;20437;-85
2022/05/16 12:02:22;;;;;;;1.63;1.53;;;26.40;59.80;;;;;;5074938;28;20509;-83
2022/05/16 12:04:51;;;;;;;1.30;1.20;;;26.40;59.70;;;;;;5074593;28;20445;-82
2022/05/16 12:07:22;;;;;;;1.67;1.30;;;26.40;60.40;;;;;;5074548;28;20519;-81
2022/05/16 12:09:58;;;;;;;1.20;1.10;;;26.50;59.80;;;;;;5074326;28;20451;-82
2022/05/16 12:12:37;;;;;;;1.30;1.10;;;26.50;60.00;;;;;;5074368;28;20488;-84
2022/05/16 12:15:29;;;;;;;1.30;1.20;;;26.50;59.90;;;;;;5074466;28;20454;-82
2022/05/16 12:17:59;;;;;;;1.57;1.20;;;26.50;59.90;;;;;;5074427;28;20441;-85
2022/05/16 12:20:39;;;;;;;1.40;1.30;;;26.50;59.90;;;;;;5074173;28;20448;-87
2022/05/16 12:23:06;;;;;;;1.73;1.43;;;26.50;60.00;;;;;;5074254;28;20507;-81
2022/05/16 12:25:36;;;;;;;1.33;1.23;;;26.50;59.90;;;;;;5074069;28;20951;-81
2022/05/16 12:28:29;;;;;;;1.30;1.20;;;26.50;60.10;;;;;;5074222;28;20445;-82
2022/05/16 12:30:59;;;;;;;1.20;1.10;;;26.50;59.90;;;;;;5073806;28;20457;-86
2022/05/16 12:33:49;;;;;;;1.50;1.33;;;26.50;59.90;;;;;;5073706;28;20482;-87
2022/05/16 12:36:18;;;;;;;1.20;1.10;;;26.50;59.90;;;;;;5073726;28;20475;-87
2022/05/16 12:38:48;;;;;;;1.67;1.57;;;26.50;59.90;;;;;;5073899;28;20428;-82
2022/05/16 12:41:44;;;;;;;1.40;1.30;;;26.50;59.80;;;;;;5073743;28;20433;-88
2022/05/16 12:44:41;;;;;;;1.30;1.20;;;26.50;59.80;;;;;;5074064;28;20433;-86
2022/05/16 12:47:30;;;;;;;1.83;1.73;;;26.50;59.70;;;;;;5053191;28;20870;-88
2022/05/16 12:50:12;;;;;;;1.23;1.13;;;26.50;59.80;;;;;;5061262;28;20445;-88
2022/05/16 12:53:05;;;;;;;1.50;1.10;;;26.50;59.90;;;;;;5073554;28;20480;-81
2022/05/16 12:55:54;;;;;;;2.23;1.33;;;26.50;59.90;;;;;;5056847;28;20512;-82
2022/05/16 12:58:26;;;;;;;1.50;1.40;;;26.50;59.90;;;;;;5073494;28;20525;-86
2022/05/16 13:00:58;;;;;;;1.40;1.30;;;26.50;59.90;;;;;;5072853;28;20499;-87
2022/05/16 13:03:39;;;;;;;1.00;0.90;;;26.50;60.00;;;;;;5073693;28;20990;-88
2022/05/16 13:06:14;;;;;;;1.30;1.20;;;26.50;59.90;;;;;;5073343;28;20954;-86
2022/05/16 13:08:47;;;;;;;1.70;1.60;;;26.50;60.00;;;;;;5073435;28;20452;-88
2022/05/16 13:11:26;;;;;;;1.40;1.30;;;26.50;60.00;;;;;;5055749;28;20441;-82
2022/05/16 13:14:05;;;;;;;2.20;1.23;;;26.50;60.10;;;;;;5073378;28;20495;-86
2022/05/16 13:16:34;;;;;;;2.00;1.50;;;26.50;60.00;;;;;;5073480;28;20484;-86
2022/05/16 13:19:06;;;;;;;1.93;1.40;;;26.40;60.00;;;;;;5073512;28;20528;-85
2022/05/16 13:21:40;;;;;;;1.40;1.27;;;26.40;60.00;;;;;;5073468;28;20527;-88
2022/05/16 13:24:12;;;;;;;1.70;1.50;;;26.40;60.20;;;;;;5073444;28;20531;-81
2022/05/16 13:29:24;;;;;;;1.40;1.30;;;26.40;60.30;;;;;;5073261;28;20482;-86
2022/05/16 13:31:53;;;;;;;1.83;1.57;;;26.40;60.50;;;;;;5073256;28;20440;-82
2022/05/16 13:34:32;;;;;;;1.20;1.10;;;26.40;60.60;;;;;;5073275;28;20564;-82
2022/05/16 13:37:02;;;;;;;1.20;1.10;;;26.40;60.40;;;;;;5073009;28;20782;-87
2022/05/16 13:39:36;;;;;;;1.50;1.40;;;26.40;60.50;;;;;;5073026;28;20540;-81
2022/05/16 13:42:04;;;;;;;1.30;1.20;;;26.40;60.70;;;;;;5073140;28;20445;-87
2022/05/16 13:44:34;;;;;;;1.53;1.20;;;26.40;60.50;;;;;;5072704;28;20502;-82